createdAt,value
2022-10-12T00:00:08.942Z,100.00
2022-10-12T00:05:41.053Z,100.00
2022-10-12T00:10:45.675Z,100.00
2022-10-12T00:15:49.609Z,100.00
2022-10-12T00:21:03.163Z,100.00
2022-10-12T00:26:09.578Z,100.00
2022-10-12T00:31:15.357Z,100.00
2022-10-12T00:36:22.857Z,100.00
2022-10-12T00:41:28.927Z,100.00
2022-10-12T00:46:37.255Z,100.00
2022-10-12T00:51:45.188Z,100.00
2022-10-12T00:56:49.905Z,100.00
2022-10-12T01:01:53.663Z,100.00
2022-10-12T01:06:59.019Z,100.00
2022-10-12T01:12:06.910Z,100.00
2022-10-12T01:17:23.052Z,100.00
2022-10-12T01:22:30.082Z,100.00
2022-10-12T01:27:47.656Z,100.00
2022-10-12T01:33:09.386Z,100.00
2022-10-12T01:38:29.801Z,100.00
2022-10-12T01:43:39.605Z,100.00
2022-10-12T01:48:47.288Z,100.00
2022-10-12T01:53:58.422Z,100.00
2022-10-12T01:59:10.060Z,100.00
2022-10-12T02:04:22.769Z,100.00
2022-10-12T02:09:29.562Z,100.00
2022-10-12T02:14:39.610Z,100.00
2022-10-12T02:19:49.908Z,100.00
2022-10-12T02:24:57.605Z,100.00
2022-10-12T02:30:01.581Z,100.00
2022-10-12T02:35:14.316Z,100.00
2022-10-12T02:40:25.127Z,100.00
2022-10-12T02:45:30.205Z,100.00
2022-10-12T02:50:35.945Z,100.00
2022-10-12T02:55:40.374Z,100.00
2022-10-12T03:00:44.212Z,100.00
2022-10-12T03:05:49.312Z,100.00
2022-10-12T03:10:53.181Z,100.00
2022-10-12T03:16:02.807Z,100.00
2022-10-12T03:21:08.108Z,100.00
2022-10-12T03:26:11.929Z,100.00
2022-10-12T03:31:15.801Z,100.00
2022-10-12T03:36:20.854Z,100.00
2022-10-12T03:41:24.641Z,100.00
2022-10-12T03:46:30.851Z,100.00
2022-10-12T03:51:35.979Z,100.00
2022-10-12T03:56:39.894Z,100.00
2022-10-12T04:01:43.608Z,100.00
2022-10-12T04:06:48.780Z,100.00
2022-10-12T04:11:52.554Z,100.00
2022-10-12T04:16:56.317Z,100.00
2022-10-12T04:22:01.474Z,100.00
2022-10-12T04:27:05.266Z,100.00
2022-10-12T04:32:12.491Z,100.00
2022-10-12T04:37:17.934Z,100.00
2022-10-12T04:42:21.647Z,100.00
2022-10-12T04:47:25.527Z,100.00
2022-10-12T04:52:30.609Z,100.00
2022-10-12T04:57:34.463Z,100.00
2022-10-12T05:02:38.362Z,100.00
2022-10-12T05:07:43.478Z,100.00
2022-10-12T05:12:47.362Z,100.00
2022-10-12T05:17:51.512Z,100.00
2022-10-12T05:22:58.235Z,100.00
2022-10-12T05:28:02.267Z,100.00
2022-10-12T05:33:06.468Z,100.00
2022-10-12T05:38:12.088Z,100.00
2022-10-12T05:43:15.850Z,100.00
2022-10-12T05:48:19.703Z,100.00
2022-10-12T05:53:24.941Z,100.00
2022-10-12T05:58:30.173Z,100.00
2022-10-12T06:03:35.192Z,100.00
2022-10-12T06:08:40.787Z,100.00
2022-10-12T06:13:45.361Z,100.00
2022-10-12T06:18:50.427Z,100.00
2022-10-12T06:23:55.666Z,100.00
2022-10-12T06:29:01.489Z,100.00
2022-10-12T06:34:07.258Z,100.00
2022-10-12T06:39:13.925Z,100.00
2022-10-12T06:44:17.667Z,100.00
2022-10-12T06:49:21.567Z,100.00
2022-10-12T06:54:26.856Z,100.00
2022-10-12T06:59:30.694Z,100.00
2022-10-12T07:04:34.726Z,100.00
2022-10-12T07:09:39.979Z,100.00
2022-10-12T07:14:43.785Z,100.00
2022-10-12T07:19:47.710Z,100.00
2022-10-12T07:24:53.077Z,100.00
2022-10-12T07:29:57.440Z,100.00
2022-10-12T07:35:01.355Z,100.00
2022-10-12T07:40:08.047Z,100.00
2022-10-12T07:45:12.157Z,100.00
2022-10-12T07:50:16.130Z,100.00
2022-10-12T07:55:23.800Z,100.00
2022-10-12T08:00:27.742Z,100.00
2022-10-12T08:05:31.794Z,100.00
2022-10-12T08:10:38.306Z,95.38
2022-10-12T08:15:42.217Z,100.00
2022-10-12T08:20:46.067Z,96.20
2022-10-12T08:25:55.759Z,93.09
2022-10-12T08:30:59.749Z,95.21
2022-10-12T08:36:05.246Z,88.19
2022-10-12T08:41:24.782Z,86.28
2022-10-12T08:46:30.459Z,86.18
2022-10-12T08:51:45.315Z,84.34
2022-10-12T08:56:54.803Z,83.06
2022-10-12T09:02:06.607Z,82.38
2022-10-12T09:07:17.045Z,78.76
2022-10-12T09:12:34.745Z,75.53
2022-10-12T09:17:43.606Z,77.50
2022-10-12T09:22:50.945Z,77.17
2022-10-12T09:28:07.526Z,77.34
2022-10-12T09:33:19.939Z,79.64
2022-10-12T09:38:24.586Z,73.99
2022-10-12T09:43:29.940Z,72.14
2022-10-12T09:48:33.756Z,73.32
2022-10-12T09:53:44.636Z,75.09
2022-10-12T09:58:54.826Z,72.97
2022-10-12T10:04:15.146Z,75.88
2022-10-12T10:09:30.587Z,74.43
2022-10-12T10:14:37.136Z,73.79
2022-10-12T10:19:41.276Z,73.89
2022-10-12T10:24:50.977Z,71.92
2022-10-12T10:30:25.501Z,72.40
2022-10-12T10:35:33.302Z,76.59
2022-10-12T10:40:37.265Z,72.65
2022-10-12T10:51:00.425Z,69.22
2022-10-12T10:56:09.444Z,68.77
2022-10-12T11:01:23.866Z,65.29
2022-10-12T11:06:38.358Z,68.53
2022-10-12T11:11:44.978Z,62.95
2022-10-12T11:16:54.228Z,61.12
2022-10-12T11:22:02.300Z,62.01
2022-10-12T11:27:12.493Z,62.80
2022-10-12T11:32:26.713Z,57.71
2022-10-12T11:37:39.647Z,59.70
2022-10-12T11:42:43.922Z,58.52
2022-10-12T11:47:53.409Z,52.17
2022-10-12T11:52:59.477Z,46.53
2022-10-12T11:58:13.735Z,49.29
2022-10-12T12:03:27.645Z,44.30
2022-10-12T12:08:59.039Z,42.01
2022-10-12T12:14:35.984Z,39.31
2022-10-12T12:19:43.382Z,41.96
2022-10-12T12:25:04.294Z,51.54
2022-10-12T12:30:28.944Z,55.75
2022-10-12T12:35:38.912Z,56.68
2022-10-12T12:40:55.097Z,55.97
2022-10-12T12:46:00.792Z,57.96
2022-10-12T12:51:08.668Z,57.72
2022-10-12T12:56:20.783Z,58.07
2022-10-12T13:01:45.403Z,54.15
2022-10-12T13:07:39.819Z,49.93
2022-10-12T13:13:25.746Z,44.36
2022-10-12T13:18:49.844Z,45.21
2022-10-12T13:24:05.895Z,42.37
2022-10-12T13:29:22.787Z,42.27
2022-10-12T13:34:32.621Z,45.97
2022-10-12T13:39:40.913Z,45.96
2022-10-12T13:44:48.865Z,42.98
2022-10-12T13:49:54.848Z,41.80
2022-10-12T13:54:59.384Z,41.47
2022-10-12T14:00:13.520Z,41.72
2022-10-12T14:05:19.866Z,41.98
2022-10-12T14:10:41.732Z,45.87
2022-10-12T14:15:47.857Z,46.71
2022-10-12T14:21:12.929Z,45.67
2022-10-12T14:26:37.045Z,43.04
2022-10-12T14:31:53.654Z,45.46
2022-10-12T14:37:05.972Z,42.76
2022-10-12T14:42:26.022Z,45.27
2022-10-12T14:47:48.094Z,46.95
2022-10-12T14:53:08.396Z,46.98
2022-10-12T14:58:25.922Z,49.60
2022-10-12T15:03:33.103Z,51.42
2022-10-12T15:08:46.816Z,51.74
2022-10-12T15:13:52.993Z,53.34
2022-10-12T15:19:02.748Z,53.85
2022-10-12T15:24:16.524Z,55.47
2022-10-12T15:29:23.199Z,58.79
2022-10-12T15:34:30.508Z,59.83
2022-10-12T15:39:37.494Z,61.53
2022-10-12T15:44:45.265Z,62.82
2022-10-12T15:49:53.057Z,65.11
2022-10-12T15:55:05.758Z,65.51
2022-10-12T16:00:16.725Z,68.59
2022-10-12T16:05:26.051Z,69.03
2022-10-12T16:10:43.043Z,71.81
2022-10-12T16:15:48.926Z,75.68
2022-10-12T16:20:57.527Z,80.12
2022-10-12T16:26:04.486Z,84.51
2022-10-12T16:31:12.430Z,86.19
2022-10-12T16:36:18.531Z,88.52
2022-10-12T16:41:22.533Z,87.61
2022-10-12T16:46:26.559Z,97.79
2022-10-12T16:51:31.953Z,100.00
2022-10-12T16:56:39.404Z,100.00
2022-10-12T17:01:44.193Z,100.00
2022-10-12T17:06:49.762Z,100.00
2022-10-12T17:11:53.567Z,100.00
2022-10-12T17:16:58.045Z,100.00
2022-10-12T17:22:06.593Z,100.00
2022-10-12T17:27:14.606Z,100.00
2022-10-12T17:32:19.108Z,100.00
2022-10-12T17:37:25.089Z,100.00
2022-10-12T17:42:29.639Z,100.00
2022-10-12T17:47:33.577Z,100.00
2022-10-12T17:52:48.003Z,100.00
2022-10-12T17:57:52.101Z,100.00
2022-10-12T18:02:55.990Z,100.00
2022-10-12T18:08:01.253Z,100.00
2022-10-12T18:13:05.214Z,100.00
2022-10-12T18:18:14.276Z,100.00
2022-10-12T18:23:21.156Z,100.00
2022-10-12T18:28:25.156Z,100.00
2022-10-12T18:33:30.231Z,100.00
2022-10-12T18:38:35.570Z,100.00
2022-10-12T18:43:39.761Z,100.00
2022-10-12T18:48:43.961Z,100.00
2022-10-12T18:53:49.510Z,100.00
2022-10-12T18:58:54.187Z,100.00
2022-10-12T19:04:00.197Z,100.00
2022-10-12T19:09:06.023Z,100.00
2022-10-12T19:14:14.215Z,100.00
2022-10-12T19:19:21.378Z,100.00
2022-10-12T19:24:27.201Z,100.00
2022-10-12T19:29:31.412Z,100.00
2022-10-12T19:34:35.304Z,100.00
2022-10-12T19:39:44.743Z,100.00
2022-10-12T19:44:49.004Z,100.00
2022-10-12T19:49:56.456Z,100.00
2022-10-12T19:55:01.843Z,100.00
2022-10-12T20:00:08.783Z,100.00
2022-10-12T20:05:16.655Z,100.00
2022-10-12T20:10:22.138Z,100.00
2022-10-12T20:15:26.118Z,100.00
2022-10-12T20:20:30.157Z,100.00
2022-10-12T20:25:35.591Z,100.00
2022-10-12T20:30:39.932Z,100.00
2022-10-12T20:35:48.132Z,100.00
2022-10-12T20:41:02.605Z,100.00
2022-10-12T20:46:08.255Z,100.00
2022-10-12T20:51:17.922Z,100.00
2022-10-12T20:56:23.159Z,100.00
2022-10-12T21:01:28.400Z,100.00
2022-10-12T21:06:32.750Z,100.00
2022-10-12T21:11:38.496Z,100.00
2022-10-12T21:16:42.908Z,100.00
2022-10-12T21:21:47.530Z,100.00
2022-10-12T21:26:53.356Z,100.00
2022-10-12T21:31:57.556Z,100.00
2022-10-12T21:37:01.489Z,100.00
2022-10-12T21:42:07.129Z,100.00
2022-10-12T21:47:17.303Z,100.00
2022-10-12T21:52:21.995Z,100.00
2022-10-12T21:57:28.807Z,100.00
2022-10-12T22:02:32.631Z,100.00
2022-10-12T22:07:36.538Z,100.00
2022-10-12T22:12:41.832Z,100.00
2022-10-12T22:17:45.699Z,100.00
2022-10-12T22:22:49.531Z,100.00
2022-10-12T22:27:54.926Z,100.00
2022-10-12T22:32:58.680Z,100.00
2022-10-12T22:38:02.524Z,100.00
2022-10-12T22:43:07.610Z,100.00
2022-10-12T22:48:11.264Z,100.00
2022-10-12T22:53:16.144Z,100.00
2022-10-12T22:58:21.496Z,100.00
2022-10-12T23:03:25.304Z,100.00
2022-10-12T23:08:29.906Z,100.00
2022-10-12T23:13:40.766Z,100.00
2022-10-12T23:18:44.695Z,100.00
2022-10-12T23:23:48.546Z,100.00
2022-10-12T23:28:54.546Z,100.00
2022-10-12T23:33:59.232Z,100.00
2022-10-12T23:39:05.737Z,100.00
2022-10-12T23:44:11.355Z,100.00
2022-10-12T23:49:15.065Z,100.00
2022-10-12T23:54:18.980Z,100.00
2022-10-12T23:59:24.865Z,100.00
